sensor_id;sensor_type;location;lat;lon;timestamp;pressure;altitude;pressure_sealevel;temperature;humidity
70976;BME280;58635;51.198;6.010;2022-08-25T00:01:38;101463.63;;;27.89;42.19
70976;BME280;58635;51.198;6.010;2022-08-25T00:04:07;101466.09;;;27.86;42.29
70976;BME280;58635;51.198;6.010;2022-08-25T00:06:35;101464.31;;;27.81;42.38
70976;BME280;58635;51.198;6.010;2022-08-25T00:09:01;101471.78;;;27.79;42.62
70976;BME280;58635;51.198;6.010;2022-08-25T00:11:29;101466.56;;;27.74;42.69
70976;BME280;58635;51.198;6.010;2022-08-25T00:13:59;101466.38;;;27.71;42.70
70976;BME280;58635;51.198;6.010;2022-08-25T00:16:26;101468.00;;;27.66;42.70
70976;BME280;58635;51.198;6.010;2022-08-25T00:18:55;101465.13;;;27.63;42.73
70976;BME280;58635;51.198;6.010;2022-08-25T00:21:23;101468.38;;;27.60;42.78
70976;BME280;58635;51.198;6.010;2022-08-25T00:23:49;101465.50;;;27.56;42.97
70976;BME280;58635;51.198;6.010;2022-08-25T00:26:15;101468.44;;;27.55;42.68
70976;BME280;58635;51.198;6.010;2022-08-25T00:28:42;101467.94;;;27.53;42.66
70976;BME280;58635;51.198;6.010;2022-08-25T00:31:13;101470.91;;;27.51;42.45
70976;BME280;58635;51.198;6.010;2022-08-25T00:33:40;101467.25;;;27.47;42.15
70976;BME280;58635;51.198;6.010;2022-08-25T00:36:06;101470.16;;;27.46;42.14
70976;BME280;58635;51.198;6.010;2022-08-25T00:38:31;101473.41;;;27.43;41.62
70976;BME280;58635;51.198;6.010;2022-08-25T00:40:57;101476.38;;;27.41;41.53
70976;BME280;58635;51.198;6.010;2022-08-25T00:43:53;101470.06;;;27.37;41.42
70976;BME280;58635;51.198;6.010;2022-08-25T00:46:31;101466.63;;;27.36;41.15
70976;BME280;58635;51.198;6.010;2022-08-25T00:49:05;101475.66;;;27.35;40.85
70976;BME280;58635;51.198;6.010;2022-08-25T00:51:57;101469.34;;;27.31;40.71
70976;BME280;58635;51.198;6.010;2022-08-25T00:54:28;101463.81;;;27.28;40.71
70976;BME280;58635;51.198;6.010;2022-08-25T00:56:55;101471.28;;;27.26;40.14
70976;BME280;58635;51.198;6.010;2022-08-25T00:59:24;101472.38;;;27.25;40.46
70976;BME280;58635;51.198;6.010;2022-08-25T01:01:51;101475.81;;;27.25;40.17
70976;BME280;58635;51.198;6.010;2022-08-25T01:04:18;101477.69;;;27.25;40.05
70976;BME280;58635;51.198;6.010;2022-08-25T01:06:45;101477.16;;;27.23;39.73
70976;BME280;58635;51.198;6.010;2022-08-25T01:09:12;101472.94;;;27.22;39.86
70976;BME280;58635;51.198;6.010;2022-08-25T01:11:40;101472.94;;;27.22;39.66
70976;BME280;58635;51.198;6.010;2022-08-25T01:14:06;101476.66;;;27.21;39.73
70976;BME280;58635;51.198;6.010;2022-08-25T01:16:35;101477.75;;;27.20;39.57
70976;BME280;58635;51.198;6.010;2022-08-25T01:19:02;101470.56;;;27.20;39.41
70976;BME280;58635;51.198;6.010;2022-08-25T01:21:30;101478.81;;;27.19;39.45
70976;BME280;58635;51.198;6.010;2022-08-25T01:23:57;101466.13;;;27.16;39.32
70976;BME280;58635;51.198;6.010;2022-08-25T01:26:30;101476.75;;;27.16;39.34
70976;BME280;58635;51.198;6.010;2022-08-25T01:28:57;101472.28;;;27.11;39.35
70976;BME280;58635;51.198;6.010;2022-08-25T01:31:42;101479.75;;;27.09;39.39
70976;BME280;58635;51.198;6.010;2022-08-25T01:34:09;101479.75;;;27.09;39.11
70976;BME280;58635;51.198;6.010;2022-08-25T01:36:37;101477.38;;;27.07;38.89
70976;BME280;58635;51.198;6.010;2022-08-25T01:39:03;101476.59;;;27.07;38.93
70976;BME280;58635;51.198;6.010;2022-08-25T01:43:54;101474.81;;;27.02;39.00
70976;BME280;58635;51.198;6.010;2022-08-25T01:46:20;101475.91;;;27.01;38.93
70976;BME280;58635;51.198;6.010;2022-08-25T01:48:46;101476.94;;;27.00;39.18
70976;BME280;58635;51.198;6.010;2022-08-25T01:51:14;101472.19;;;26.97;38.93
70976;BME280;58635;51.198;6.010;2022-08-25T01:53:40;101480.72;;;26.94;38.62
70976;BME280;58635;51.198;6.010;2022-08-25T01:56:14;101479.94;;;26.94;38.59
70976;BME280;58635;51.198;6.010;2022-08-25T01:58:43;101479.44;;;26.92;38.88
70976;BME280;58635;51.198;6.010;2022-08-25T02:01:13;101478.16;;;26.89;39.12
70976;BME280;58635;51.198;6.010;2022-08-25T02:03:41;101483.22;;;26.86;38.96
70976;BME280;58635;51.198;6.010;2022-08-25T02:06:09;101477.19;;;26.80;39.25
70976;BME280;58635;51.198;6.010;2022-08-25T02:08:35;101482.50;;;26.80;39.14
70976;BME280;58635;51.198;6.010;2022-08-25T02:11:01;101478.84;;;26.76;39.53
70976;BME280;58635;51.198;6.010;2022-08-25T02:13:26;101477.53;;;26.73;39.63
70976;BME280;58635;51.198;6.010;2022-08-25T02:15:53;101467.50;;;26.70;39.54
70976;BME280;58635;51.198;6.010;2022-08-25T02:18:20;101478.69;;;26.67;39.43
70976;BME280;58635;51.198;6.010;2022-08-25T02:20:46;101476.31;;;26.66;39.42
70976;BME280;58635;51.198;6.010;2022-08-25T02:23:12;101468.66;;;26.64;39.48
70976;BME280;58635;51.198;6.010;2022-08-25T02:25:38;101476.09;;;26.62;39.20
70976;BME280;58635;51.198;6.010;2022-08-25T02:28:04;101475.59;;;26.60;39.34
70976;BME280;58635;51.198;6.010;2022-08-25T02:30:31;101475.09;;;26.58;39.29
70976;BME280;58635;51.198;6.010;2022-08-25T02:32:57;101464.75;;;26.57;39.10
70976;BME280;58635;51.198;6.010;2022-08-25T02:35:23;101472.22;;;26.55;39.23
70976;BME280;58635;51.198;6.010;2022-08-25T02:37:51;101468.00;;;26.54;39.34
70976;BME280;58635;51.198;6.010;2022-08-25T02:40:17;101464.81;;;26.51;39.21
70976;BME280;58635;51.198;6.010;2022-08-25T02:42:43;101464.81;;;26.51;38.77
70976;BME280;58635;51.198;6.010;2022-08-25T02:45:09;101468.53;;;26.50;38.86
70976;BME280;58635;51.198;6.010;2022-08-25T02:47:35;101466.44;;;26.47;39.03
70976;BME280;58635;51.198;6.010;2022-08-25T02:50:03;101457.50;;;26.43;38.80
70976;BME280;58635;51.198;6.010;2022-08-25T02:52:29;101457.50;;;26.43;38.81
70976;BME280;58635;51.198;6.010;2022-08-25T02:54:54;101457.00;;;26.41;39.00
70976;BME280;58635;51.198;6.010;2022-08-25T02:57:20;101454.59;;;26.40;38.95
70976;BME280;58635;51.198;6.010;2022-08-25T02:59:46;101452.22;;;26.38;38.73
70976;BME280;58635;51.198;6.010;2022-08-25T03:02:13;101455.94;;;26.37;38.73
70976;BME280;58635;51.198;6.010;2022-08-25T03:04:38;101449.06;;;26.36;38.35
70976;BME280;58635;51.198;6.010;2022-08-25T03:07:04;101446.69;;;26.35;38.67
70976;BME280;58635;51.198;6.010;2022-08-25T03:09:29;101451.19;;;26.34;38.54
70976;BME280;58635;51.198;6.010;2022-08-25T03:11:55;101445.38;;;26.32;38.42
70976;BME280;58635;51.198;6.010;2022-08-25T03:14:20;101443.53;;;26.33;38.32
70976;BME280;58635;51.198;6.010;2022-08-25T03:16:46;101452.56;;;26.32;37.96
70976;BME280;58635;51.198;6.010;2022-08-25T03:19:11;101445.16;;;26.29;37.91
70976;BME280;58635;51.198;6.010;2022-08-25T03:21:37;101446.22;;;26.28;38.24
70976;BME280;58635;51.198;6.010;2022-08-25T03:24:03;101437.75;;;26.26;38.25
70976;BME280;58635;51.198;6.010;2022-08-25T03:26:29;101443.34;;;26.24;38.11
70976;BME280;58635;51.198;6.010;2022-08-25T03:29:13;101439.13;;;26.23;38.27
70976;BME280;58635;51.198;6.010;2022-08-25T03:31:40;101434.88;;;26.22;38.39
70976;BME280;58635;51.198;6.010;2022-08-25T03:34:09;101434.88;;;26.22;38.07
70976;BME280;58635;51.198;6.010;2022-08-25T03:36:34;101431.44;;;26.21;38.15
70976;BME280;58635;51.198;6.010;2022-08-25T03:39:00;101428.00;;;26.21;38.02
70976;BME280;58635;51.198;6.010;2022-08-25T03:41:28;101429.09;;;26.20;38.14
70976;BME280;58635;51.198;6.010;2022-08-25T03:43:55;101421.41;;;26.18;38.21
70976;BME280;58635;51.198;6.010;2022-08-25T03:46:29;101425.94;;;26.18;38.22
70976;BME280;58635;51.198;6.010;2022-08-25T03:48:56;101420.09;;;26.16;38.38
70976;BME280;58635;51.198;6.010;2022-08-25T03:51:28;101418.53;;;26.15;38.30
70976;BME280;58635;51.198;6.010;2022-08-25T03:53:53;101411.13;;;26.12;38.30
70976;BME280;58635;51.198;6.010;2022-08-25T03:56:19;101414.84;;;26.11;38.49
70976;BME280;58635;51.198;6.010;2022-08-25T03:58:45;101415.94;;;26.10;38.32
70976;BME280;58635;51.198;6.010;2022-08-25T04:01:10;101420.72;;;26.08;38.18
70976;BME280;58635;51.198;6.010;2022-08-25T04:03:36;101414.41;;;26.04;38.33
70976;BME280;58635;51.198;6.010;2022-08-25T04:06:03;101423.13;;;26.04;38.74
70976;BME280;58635;51.198;6.010;2022-08-25T04:08:29;101414.69;;;26.02;38.82
70976;BME280;58635;51.198;6.010;2022-08-25T04:10:54;101408.09;;;26.00;38.41
70976;BME280;58635;51.198;6.010;2022-08-25T04:13:20;101413.66;;;25.98;38.55
70976;BME280;58635;51.198;6.010;2022-08-25T04:15:45;101409.16;;;25.99;38.48
70976;BME280;58635;51.198;6.010;2022-08-25T04:18:11;101402.28;;;25.98;38.29
70976;BME280;58635;51.198;6.010;2022-08-25T04:20:37;101407.06;;;25.96;38.36
70976;BME280;58635;51.198;6.010;2022-08-25T04:23:03;101413.44;;;25.94;38.58
70976;BME280;58635;51.198;6.010;2022-08-25T04:25:28;101412.13;;;25.92;38.79
70976;BME280;58635;51.198;6.010;2022-08-25T04:27:54;101412.91;;;25.92;38.40
70976;BME280;58635;51.198;6.010;2022-08-25T04:30:20;101414.28;;;25.90;38.55
70976;BME280;58635;51.198;6.010;2022-08-25T04:32:46;101416.13;;;25.89;39.03
70976;BME280;58635;51.198;6.010;2022-08-25T04:35:13;101418.78;;;25.89;38.93
70976;BME280;58635;51.198;6.010;2022-08-25T04:37:38;101419.84;;;25.88;38.92
70976;BME280;58635;51.198;6.010;2022-08-25T04:40:04;101411.41;;;25.86;38.71
70976;BME280;58635;51.198;6.010;2022-08-25T04:42:30;101407.19;;;25.85;38.75
70976;BME280;58635;51.198;6.010;2022-08-25T04:44:56;101405.31;;;25.86;38.67
70976;BME280;58635;51.198;6.010;2022-08-25T04:47:21;101410.13;;;25.84;38.69
70976;BME280;58635;51.198;6.010;2022-08-25T04:49:47;101402.69;;;25.81;38.66
70976;BME280;58635;51.198;6.010;2022-08-25T04:52:14;101405.34;;;25.81;38.70
70976;BME280;58635;51.198;6.010;2022-08-25T04:54:39;101410.94;;;25.79;38.77
70976;BME280;58635;51.198;6.010;2022-08-25T04:57:05;101402.19;;;25.79;38.84
70976;BME280;58635;51.198;6.010;2022-08-25T04:59:31;101399.53;;;25.79;39.04
70976;BME280;58635;51.198;6.010;2022-08-25T05:02:00;101404.06;;;25.78;38.58
70976;BME280;58635;51.198;6.010;2022-08-25T05:04:34;101401.41;;;25.78;38.89
70976;BME280;58635;51.198;6.010;2022-08-25T05:07:00;101395.31;;;25.78;38.72
70976;BME280;58635;51.198;6.010;2022-08-25T05:09:26;101392.38;;;25.79;38.65
70976;BME280;58635;51.198;6.010;2022-08-25T05:11:52;101384.44;;;25.79;38.75
70976;BME280;58635;51.198;6.010;2022-08-25T05:14:17;101381.50;;;25.81;38.50
70976;BME280;58635;51.198;6.010;2022-08-25T05:16:46;101382.81;;;25.83;38.57
70976;BME280;58635;51.198;6.010;2022-08-25T05:19:12;101385.69;;;25.87;38.34
70976;BME280;58635;51.198;6.010;2022-08-25T05:21:37;101387.50;;;25.91;38.79
70976;BME280;58635;51.198;6.010;2022-08-25T05:24:03;101392.25;;;25.94;38.64
70976;BME280;58635;51.198;6.010;2022-08-25T05:26:30;101392.97;;;26.00;38.78
70976;BME280;58635;51.198;6.010;2022-08-25T05:28:57;101393.19;;;26.04;38.86
70976;BME280;58635;51.198;6.010;2022-08-25T05:31:24;101401.09;;;26.09;38.52
70976;BME280;58635;51.198;6.010;2022-08-25T05:33:51;101404.47;;;26.14;38.74
70976;BME280;58635;51.198;6.010;2022-08-25T05:36:17;101397.56;;;26.18;38.79
70976;BME280;58635;51.198;6.010;2022-08-25T05:38:44;101403.56;;;26.24;38.75
70976;BME280;58635;51.198;6.010;2022-08-25T05:41:12;101408.53;;;26.31;38.42
70976;BME280;58635;51.198;6.010;2022-08-25T05:43:41;101407.13;;;26.38;38.57
70976;BME280;58635;51.198;6.010;2022-08-25T05:46:08;101416.34;;;26.46;38.86
70976;BME280;58635;51.198;6.010;2022-08-25T05:48:34;101419.16;;;26.55;38.81
70976;BME280;58635;51.198;6.010;2022-08-25T05:51:02;101420.38;;;26.62;38.64
70976;BME280;58635;51.198;6.010;2022-08-25T05:53:29;101421.59;;;26.70;38.18
70976;BME280;58635;51.198;6.010;2022-08-25T05:55:56;101415.66;;;26.78;38.00
70976;BME280;58635;51.198;6.010;2022-08-25T05:58:23;101416.56;;;26.87;37.95
70976;BME280;58635;51.198;6.010;2022-08-25T06:00:49;101414.84;;;26.96;37.96
70976;BME280;58635;51.198;6.010;2022-08-25T06:03:15;101414.75;;;27.06;37.95
70976;BME280;58635;51.198;6.010;2022-08-25T06:05:41;101421.47;;;27.18;37.64
70976;BME280;58635;51.198;6.010;2022-08-25T06:08:07;101414.72;;;27.25;37.52
70976;BME280;58635;51.198;6.010;2022-08-25T06:10:33;101415.56;;;27.39;37.33
70976;BME280;58635;51.198;6.010;2022-08-25T06:12:59;101414.31;;;27.51;37.26
70976;BME280;58635;51.198;6.010;2022-08-25T06:15:25;101416.50;;;27.62;36.91
70976;BME280;58635;51.198;6.010;2022-08-25T06:17:51;101419.50;;;27.75;36.76
70976;BME280;58635;51.198;6.010;2022-08-25T06:20:20;101416.38;;;27.86;36.84
70976;BME280;58635;51.198;6.010;2022-08-25T06:22:46;101422.59;;;27.95;36.89
70976;BME280;58635;51.198;6.010;2022-08-25T06:25:14;101415.69;;;28.08;36.52
70976;BME280;58635;51.198;6.010;2022-08-25T06:27:40;101415.22;;;28.20;36.33
70976;BME280;58635;51.198;6.010;2022-08-25T06:30:07;101423.00;;;28.30;36.39
70976;BME280;58635;51.198;6.010;2022-08-25T06:32:35;101423.56;;;28.41;36.04
70976;BME280;58635;51.198;6.010;2022-08-25T06:35:02;101429.78;;;28.50;35.92
70976;BME280;58635;51.198;6.010;2022-08-25T06:37:28;101430.03;;;28.62;35.51
70976;BME280;58635;51.198;6.010;2022-08-25T06:39:53;101424.22;;;28.74;35.48
70976;BME280;58635;51.198;6.010;2022-08-25T06:42:20;101428.53;;;28.83;35.65
70976;BME280;58635;51.198;6.010;2022-08-25T06:44:45;101420.34;;;28.94;35.14
70976;BME280;58635;51.198;6.010;2022-08-25T06:47:10;101424.03;;;29.06;35.17
70976;BME280;58635;51.198;6.010;2022-08-25T06:49:36;101419.56;;;29.16;35.27
70976;BME280;58635;51.198;6.010;2022-08-25T06:52:02;101417.56;;;29.21;34.74
70976;BME280;58635;51.198;6.010;2022-08-25T06:54:27;101416.84;;;29.29;34.91
70976;BME280;58635;51.198;6.010;2022-08-25T06:56:52;101419.88;;;29.36;34.75
70976;BME280;58635;51.198;6.010;2022-08-25T06:59:18;101413.69;;;29.50;34.63
70976;BME280;58635;51.198;6.010;2022-08-25T07:01:43;101412.94;;;29.58;34.31
70976;BME280;58635;51.198;6.010;2022-08-25T07:04:09;101411.59;;;29.69;34.18
70976;BME280;58635;51.198;6.010;2022-08-25T07:06:35;101414.78;;;29.80;33.97
70976;BME280;58635;51.198;6.010;2022-08-25T07:09:02;101420.78;;;29.94;33.45
70976;BME280;58635;51.198;6.010;2022-08-25T07:11:28;101415.69;;;30.06;33.53
70976;BME280;58635;51.198;6.010;2022-08-25T07:13:59;101410.53;;;30.18;33.63
70976;BME280;58635;51.198;6.010;2022-08-25T07:16:24;101405.09;;;30.32;33.36
70976;BME280;58635;51.198;6.010;2022-08-25T07:18:49;101404.63;;;30.39;32.87
70976;BME280;58635;51.198;6.010;2022-08-25T07:21:15;101401.66;;;30.49;33.05
70976;BME280;58635;51.198;6.010;2022-08-25T07:23:41;101407.16;;;30.61;32.84
70976;BME280;58635;51.198;6.010;2022-08-25T07:26:13;101399.00;;;30.75;31.93
70976;BME280;58635;51.198;6.010;2022-08-25T07:28:39;101395.56;;;30.83;32.26
70976;BME280;58635;51.198;6.010;2022-08-25T07:31:05;101402.78;;;31.00;31.88
70976;BME280;58635;51.198;6.010;2022-08-25T07:33:31;101402.63;;;31.05;31.96
70976;BME280;58635;51.198;6.010;2022-08-25T07:35:57;101404.19;;;31.06;32.13
70976;BME280;58635;51.198;6.010;2022-08-25T07:38:22;101398.38;;;31.04;31.90
70976;BME280;58635;51.198;6.010;2022-08-25T07:40:48;101396.03;;;31.02;31.53
70976;BME280;58635;51.198;6.010;2022-08-25T07:43:20;101394.16;;;31.03;31.51
70976;BME280;58635;51.198;6.010;2022-08-25T07:45:46;101385.81;;;31.04;31.74
70976;BME280;58635;51.198;6.010;2022-08-25T07:48:12;101379.50;;;31.09;31.72
70976;BME280;58635;51.198;6.010;2022-08-25T07:50:40;101384.53;;;31.10;31.84
70976;BME280;58635;51.198;6.010;2022-08-25T07:53:07;101386.75;;;31.08;31.75
70976;BME280;58635;51.198;6.010;2022-08-25T07:55:34;101380.59;;;31.08;31.74
70976;BME280;58635;51.198;6.010;2022-08-25T07:58:04;101382.19;;;31.09;32.28
70976;BME280;58635;51.198;6.010;2022-08-25T08:00:31;101388.78;;;31.11;31.77
70976;BME280;58635;51.198;6.010;2022-08-25T08:02:59;101384.06;;;31.17;31.97
70976;BME280;58635;51.198;6.010;2022-08-25T08:05:25;101384.56;;;31.19;31.87
70976;BME280;58635;51.198;6.010;2022-08-25T08:07:52;101386.13;;;31.20;32.18
70976;BME280;58635;51.198;6.010;2022-08-25T08:10:18;101383.59;;;31.24;32.24
70976;BME280;58635;51.198;6.010;2022-08-25T08:12:44;101376.84;;;31.26;31.84
70976;BME280;58635;51.198;6.010;2022-08-25T08:15:10;101374.16;;;31.26;31.37
70976;BME280;58635;51.198;6.010;2022-08-25T08:17:37;101368.50;;;31.28;31.36
70976;BME280;58635;51.198;6.010;2022-08-25T08:20:03;101362.50;;;31.31;31.80
70976;BME280;58635;51.198;6.010;2022-08-25T08:22:33;101370.03;;;31.37;31.33
70976;BME280;58635;51.198;6.010;2022-08-25T08:24:59;101366.72;;;31.40;31.71
70976;BME280;58635;51.198;6.010;2022-08-25T08:27:25;101362.75;;;31.47;31.30
70976;BME280;58635;51.198;6.010;2022-08-25T08:29:50;101364.00;;;31.49;31.58
70976;BME280;58635;51.198;6.010;2022-08-25T08:32:18;101350.81;;;31.53;31.44
70976;BME280;58635;51.198;6.010;2022-08-25T08:34:43;101357.06;;;31.57;31.34
70976;BME280;58635;51.198;6.010;2022-08-25T08:37:10;101359.25;;;31.63;31.42
70976;BME280;58635;51.198;6.010;2022-08-25T08:39:35;101360.94;;;31.68;31.27
70976;BME280;58635;51.198;6.010;2022-08-25T08:50:13;101359.72;;;31.95;30.71
70976;BME280;58635;51.198;6.010;2022-08-25T08:55:49;101362.81;;;32.06;30.77
70976;BME280;58635;51.198;6.010;2022-08-25T08:58:20;101366.88;;;32.12;30.85
70976;BME280;58635;51.198;6.010;2022-08-25T09:00:49;101368.41;;;32.21;30.24
70976;BME280;58635;51.198;6.010;2022-08-25T09:03:40;101359.38;;;32.26;30.43
70976;BME280;58635;51.198;6.010;2022-08-25T09:06:13;101364.56;;;32.31;30.27
70976;BME280;58635;51.198;6.010;2022-08-25T09:08:42;101362.81;;;32.35;30.38
70976;BME280;58635;51.198;6.010;2022-08-25T09:11:23;101363.72;;;32.39;30.27
70976;BME280;58635;51.198;6.010;2022-08-25T09:16:53;101364.16;;;32.41;29.86
70976;BME280;58635;51.198;6.010;2022-08-25T09:30:16;101356.25;;;32.66;29.16
70976;BME280;58635;51.198;6.010;2022-08-25T09:35:34;101366.22;;;32.77;28.97
70976;BME280;58635;51.198;6.010;2022-08-25T09:38:04;101359.94;;;32.82;28.55
70976;BME280;58635;51.198;6.010;2022-08-25T09:40:33;101353.03;;;32.93;28.80
70976;BME280;58635;51.198;6.010;2022-08-25T09:43:00;101353.72;;;33.02;28.42
70976;BME280;58635;51.198;6.010;2022-08-25T09:45:36;101351.28;;;33.09;28.48
70976;BME280;58635;51.198;6.010;2022-08-25T09:48:28;101356.13;;;33.16;28.31
70976;BME280;58635;51.198;6.010;2022-08-25T09:50:59;101341.81;;;33.24;28.08
70976;BME280;58635;51.198;6.010;2022-08-25T09:53:26;101342.06;;;33.31;27.88
70976;BME280;58635;51.198;6.010;2022-08-25T09:55:58;101338.84;;;33.38;27.72
70976;BME280;58635;51.198;6.010;2022-08-25T09:58:24;101338.06;;;33.37;27.84
70976;BME280;58635;51.198;6.010;2022-08-25T10:01:25;101341.72;;;33.33;28.17
70976;BME280;58635;51.198;6.010;2022-08-25T10:04:04;101335.91;;;33.31;28.12
70976;BME280;58635;51.198;6.010;2022-08-25T10:06:34;101341.28;;;33.31;28.16
70976;BME280;58635;51.198;6.010;2022-08-25T10:09:06;101336.59;;;33.28;28.23
70976;BME280;58635;51.198;6.010;2022-08-25T10:11:43;101328.53;;;33.28;28.22
70976;BME280;58635;51.198;6.010;2022-08-25T10:16:50;101329.31;;;33.28;27.86
70976;BME280;58635;51.198;6.010;2022-08-25T10:19:27;101323.97;;;33.28;27.86
70976;BME280;58635;51.198;6.010;2022-08-25T10:22:11;101329.78;;;33.30;28.02
70976;BME280;58635;51.198;6.010;2022-08-25T10:24:44;101320.59;;;33.31;28.05
70976;BME280;58635;51.198;6.010;2022-08-25T10:27:21;101315.69;;;33.33;27.86
70976;BME280;58635;51.198;6.010;2022-08-25T10:35:01;101309.13;;;33.55;27.45
70976;BME280;58635;51.198;6.010;2022-08-25T10:40:25;101305.22;;;33.65;27.25
70976;BME280;58635;51.198;6.010;2022-08-25T10:49:03;101296.16;;;33.69;26.85
70976;BME280;58635;51.198;6.010;2022-08-25T10:51:39;101290.25;;;33.64;27.18
70976;BME280;58635;51.198;6.010;2022-08-25T10:59:54;101265.72;;;33.78;26.95
70976;BME280;58635;51.198;6.010;2022-08-25T11:02:35;101262.13;;;33.86;26.73
70976;BME280;58635;51.198;6.010;2022-08-25T11:07:49;101267.81;;;33.96;26.15
70976;BME280;58635;51.198;6.010;2022-08-25T11:10:24;101266.81;;;34.01;26.01
70976;BME280;58635;51.198;6.010;2022-08-25T11:12:56;101260.84;;;34.08;25.82
70976;BME280;58635;51.198;6.010;2022-08-25T11:15:30;101264.53;;;34.15;25.96
70976;BME280;58635;51.198;6.010;2022-08-25T11:18:04;101257.13;;;34.24;26.05
70976;BME280;58635;51.198;6.010;2022-08-25T11:21:04;101259.44;;;34.38;26.27
70976;BME280;58635;51.198;6.010;2022-08-25T11:23:40;101245.38;;;34.45;26.04
70976;BME280;58635;51.198;6.010;2022-08-25T11:26:13;101255.56;;;34.51;25.67
70976;BME280;58635;51.198;6.010;2022-08-25T11:31:21;101254.44;;;34.68;26.13
70976;BME280;58635;51.198;6.010;2022-08-25T11:33:48;101253.50;;;34.76;25.44
70976;BME280;58635;51.198;6.010;2022-08-25T11:36:29;101258.72;;;34.85;25.58
70976;BME280;58635;51.198;6.010;2022-08-25T11:41:55;101244.09;;;34.98;25.21
70976;BME280;58635;51.198;6.010;2022-08-25T11:44:57;101237.56;;;35.15;25.23
70976;BME280;58635;51.198;6.010;2022-08-25T11:47:35;101231.38;;;35.30;24.56
70976;BME280;58635;51.198;6.010;2022-08-25T11:52:55;101231.25;;;35.58;23.80
70976;BME280;58635;51.198;6.010;2022-08-25T11:55:51;101221.19;;;35.74;23.16
70976;BME280;58635;51.198;6.010;2022-08-25T12:00:54;101212.94;;;36.02;22.99
70976;BME280;58635;51.198;6.010;2022-08-25T12:06:30;101212.44;;;36.36;22.55
70976;BME280;58635;51.198;6.010;2022-08-25T12:27:24;101195.66;;;37.18;21.44
70976;BME280;58635;51.198;6.010;2022-08-25T12:30:11;101193.44;;;37.27;21.16
70976;BME280;58635;51.198;6.010;2022-08-25T12:32:48;101191.31;;;37.40;21.33
70976;BME280;58635;51.198;6.010;2022-08-25T12:38:29;101187.47;;;37.71;21.08
70976;BME280;58635;51.198;6.010;2022-08-25T12:41:10;101197.53;;;37.74;20.25
70976;BME280;58635;51.198;6.010;2022-08-25T12:43:42;101189.75;;;37.69;20.30
70976;BME280;58635;51.198;6.010;2022-08-25T12:51:53;101185.81;;;37.93;19.67
70976;BME280;58635;51.198;6.010;2022-08-25T12:54:38;101188.66;;;38.07;19.75
70976;BME280;58635;51.198;6.010;2022-08-25T12:57:30;101179.47;;;38.15;19.35
70976;BME280;58635;51.198;6.010;2022-08-25T13:13:22;101166.13;;;38.33;19.14
70976;BME280;58635;51.198;6.010;2022-08-25T13:16:00;101165.38;;;38.32;19.02
70976;BME280;58635;51.198;6.010;2022-08-25T13:18:29;101157.28;;;38.36;19.17
70976;BME280;58635;51.198;6.010;2022-08-25T13:21:10;101153.84;;;38.39;18.96
70976;BME280;58635;51.198;6.010;2022-08-25T13:23:40;101152.69;;;38.40;19.06
70976;BME280;58635;51.198;6.010;2022-08-25T13:26:06;101151.94;;;38.43;18.71
70976;BME280;58635;51.198;6.010;2022-08-25T13:28:36;101139.28;;;38.51;18.55
70976;BME280;58635;51.198;6.010;2022-08-25T13:33:29;101139.75;;;38.64;18.58
70976;BME280;58635;51.198;6.010;2022-08-25T13:35:58;101131.22;;;38.61;18.35
70976;BME280;58635;51.198;6.010;2022-08-25T13:38:44;101124.53;;;38.45;18.19
70976;BME280;58635;51.198;6.010;2022-08-25T13:41:10;101135.31;;;38.38;18.39
70976;BME280;58635;51.198;6.010;2022-08-25T13:43:40;101126.44;;;38.37;18.64
70976;BME280;58635;51.198;6.010;2022-08-25T13:46:06;101133.03;;;38.43;18.88
70976;BME280;58635;51.198;6.010;2022-08-25T13:48:37;101126.47;;;38.48;18.96
70976;BME280;58635;51.198;6.010;2022-08-25T13:51:15;101121.03;;;38.41;18.83
70976;BME280;58635;51.198;6.010;2022-08-25T13:53:51;101120.59;;;38.35;18.59
70976;BME280;58635;51.198;6.010;2022-08-25T13:56:25;101124.41;;;38.27;18.60
70976;BME280;58635;51.198;6.010;2022-08-25T13:58:51;101110.41;;;38.14;18.60
70976;BME280;58635;51.198;6.010;2022-08-25T14:01:21;101115.66;;;38.00;18.46
70976;BME280;58635;51.198;6.010;2022-08-25T14:03:47;101115.97;;;37.91;18.78
70976;BME280;58635;51.198;6.010;2022-08-25T14:08:42;101104.84;;;37.63;18.93
70976;BME280;58635;51.198;6.010;2022-08-25T14:14:07;101102.66;;;37.38;19.46
70976;BME280;58635;51.198;6.010;2022-08-25T14:17:18;101109.16;;;37.34;19.26
70976;BME280;58635;51.198;6.010;2022-08-25T14:19:25;101095.56;;;37.27;19.95
70976;BME280;58635;51.198;6.010;2022-08-25T14:21:51;101099.88;;;37.31;19.74
70976;BME280;58635;51.198;6.010;2022-08-25T14:24:21;101094.13;;;37.33;19.49
70976;BME280;58635;51.198;6.010;2022-08-25T14:26:47;101094.88;;;37.30;19.63
70976;BME280;58635;51.198;6.010;2022-08-25T14:29:14;101094.91;;;37.33;19.92
70976;BME280;58635;51.198;6.010;2022-08-25T14:31:42;101098.38;;;37.34;19.45
70976;BME280;58635;51.198;6.010;2022-08-25T14:34:12;101093.72;;;37.31;19.61
70976;BME280;58635;51.198;6.010;2022-08-25T14:36:39;101096.25;;;37.20;19.62
70976;BME280;58635;51.198;6.010;2022-08-25T14:39:05;101094.50;;;37.05;19.77
70976;BME280;58635;51.198;6.010;2022-08-25T14:41:32;101097.53;;;37.00;19.69
70976;BME280;58635;51.198;6.010;2022-08-25T14:43:59;101094.44;;;36.98;19.98
70976;BME280;58635;51.198;6.010;2022-08-25T14:46:27;101089.84;;;37.02;20.08
70976;BME280;58635;51.198;6.010;2022-08-25T14:49:02;101092.88;;;36.97;20.22
70976;BME280;58635;51.198;6.010;2022-08-25T14:51:30;101097.44;;;36.93;19.74
70976;BME280;58635;51.198;6.010;2022-08-25T14:54:03;101094.59;;;36.82;20.13
70976;BME280;58635;51.198;6.010;2022-08-25T14:56:30;101080.97;;;36.71;20.35
70976;BME280;58635;51.198;6.010;2022-08-25T14:58:56;101087.38;;;36.63;19.96